sensor_id;sensor_type;location;lat;lon;timestamp;pressure;altitude;pressure_sealevel;temperature
13304;BMP280;6720;51.958;4.540;2023-08-08T00:02:05;101301.06;;;20.42
13304;BMP280;6720;51.958;4.540;2023-08-08T00:04:31;101295.72;;;20.42
13304;BMP280;6720;51.958;4.540;2023-08-08T00:06:56;101300.22;;;20.59
13304;BMP280;6720;51.958;4.540;2023-08-08T00:09:22;101296.50;;;20.44
13304;BMP280;6720;51.958;4.540;2023-08-08T00:11:48;101299.16;;;20.44
13304;BMP280;6720;51.958;4.540;2023-08-08T00:14:14;101293.53;;;20.50
13304;BMP280;6720;51.958;4.540;2023-08-08T00:16:40;101296.69;;;20.58
13304;BMP280;6720;51.958;4.540;2023-08-08T00:19:05;101296.81;;;20.55
13304;BMP280;6720;51.958;4.540;2023-08-08T00:21:30;101293.31;;;20.55
13304;BMP280;6720;51.958;4.540;2023-08-08T00:23:56;101294.41;;;20.51
13304;BMP280;6720;51.958;4.540;2023-08-08T00:26:21;101288.84;;;20.55
13304;BMP280;6720;51.958;4.540;2023-08-08T00:28:47;101297.38;;;20.62
13304;BMP280;6720;51.958;4.540;2023-08-08T00:31:12;101284.47;;;20.54
13304;BMP280;6720;51.958;4.540;2023-08-08T00:33:38;101297.38;;;20.62
13304;BMP280;6720;51.958;4.540;2023-08-08T00:36:03;101290.56;;;20.73
13304;BMP280;6720;51.958;4.540;2023-08-08T00:38:29;101290.97;;;20.83
13304;BMP280;6720;51.958;4.540;2023-08-08T00:40:54;101288.72;;;20.75
13304;BMP280;6720;51.958;4.540;2023-08-08T00:43:20;101288.00;;;20.72
13304;BMP280;6720;51.958;4.540;2023-08-08T00:45:45;101288.00;;;20.72
13304;BMP280;6720;51.958;4.540;2023-08-08T00:48:11;101289.94;;;20.85
13304;BMP280;6720;51.958;4.540;2023-08-08T00:50:37;101290.09;;;20.82
13304;BMP280;6720;51.958;4.540;2023-08-08T00:53:04;101288.22;;;20.84
13304;BMP280;6720;51.958;4.540;2023-08-08T00:55:30;101287.69;;;20.78
13304;BMP280;6720;51.958;4.540;2023-08-08T00:57:56;101286.97;;;20.74
13304;BMP280;6720;51.958;4.540;2023-08-08T01:00:22;101283.53;;;20.72
13304;BMP280;6720;51.958;4.540;2023-08-08T01:02:47;101284.38;;;20.73
13304;BMP280;6720;51.958;4.540;2023-08-08T01:05:13;101294.03;;;20.75
13304;BMP280;6720;51.958;4.540;2023-08-08T01:07:41;101289.63;;;20.74
13304;BMP280;6720;51.958;4.540;2023-08-08T01:10:14;101282.88;;;20.67
13304;BMP280;6720;51.958;4.540;2023-08-08T01:13:22;101285.56;;;20.67
13304;BMP280;6720;51.958;4.540;2023-08-08T01:15:48;101290.34;;;20.61
13304;BMP280;6720;51.958;4.540;2023-08-08T01:18:14;101293.78;;;20.63
13304;BMP280;6720;51.958;4.540;2023-08-08T01:20:41;101288.53;;;20.61
13304;BMP280;6720;51.958;4.540;2023-08-08T01:26:05;101284.00;;;20.63
13304;BMP280;6720;51.958;4.540;2023-08-08T01:28:31;101289.31;;;20.63
13304;BMP280;6720;51.958;4.540;2023-08-08T01:30:56;101299.19;;;20.61
13304;BMP280;6720;51.958;4.540;2023-08-08T01:33:21;101287.50;;;20.47
13304;BMP280;6720;51.958;4.540;2023-08-08T01:35:52;101291.34;;;20.58
13304;BMP280;6720;51.958;4.540;2023-08-08T01:38:33;101286.19;;;20.55
13304;BMP280;6720;51.958;4.540;2023-08-08T01:41:02;101285.34;;;20.55
13304;BMP280;6720;51.958;4.540;2023-08-08T01:43:30;101284.22;;;20.42
13304;BMP280;6720;51.958;4.540;2023-08-08T01:45:56;101295.19;;;20.36
13304;BMP280;6720;51.958;4.540;2023-08-08T01:48:22;101280.06;;;20.36
13304;BMP280;6720;51.958;4.540;2023-08-08T01:50:47;101285.53;;;20.33
13304;BMP280;6720;51.958;4.540;2023-08-08T01:53:13;101282.25;;;20.28
13304;BMP280;6720;51.958;4.540;2023-08-08T01:55:38;101278.97;;;20.23
13304;BMP280;6720;51.958;4.540;2023-08-08T01:58:04;101269.50;;;20.18
13304;BMP280;6720;51.958;4.540;2023-08-08T02:00:29;101273.25;;;20.14
13304;BMP280;6720;51.958;4.540;2023-08-08T02:02:55;101275.97;;;20.12
13304;BMP280;6720;51.958;4.540;2023-08-08T02:05:20;101273.41;;;20.11
13304;BMP280;6720;51.958;4.540;2023-08-08T02:07:46;101273.78;;;20.02
13304;BMP280;6720;51.958;4.540;2023-08-08T02:10:11;101267.25;;;20.09
13304;BMP280;6720;51.958;4.540;2023-08-08T02:12:36;101268.41;;;20.03
13304;BMP280;6720;51.958;4.540;2023-08-08T02:15:02;101263.41;;;19.97
13304;BMP280;6720;51.958;4.540;2023-08-08T02:17:29;101253.88;;;19.93
13304;BMP280;6720;51.958;4.540;2023-08-08T02:19:54;101266.00;;;19.80
13304;BMP280;6720;51.958;4.540;2023-08-08T02:22:20;101263.66;;;19.74
13304;BMP280;6720;51.958;4.540;2023-08-08T02:24:45;101269.75;;;19.76
13304;BMP280;6720;51.958;4.540;2023-08-08T02:27:11;101273.75;;;19.85
13304;BMP280;6720;51.958;4.540;2023-08-08T02:29:37;101265.66;;;19.88
13304;BMP280;6720;51.958;4.540;2023-08-08T02:32:03;101266.66;;;19.85
13304;BMP280;6720;51.958;4.540;2023-08-08T02:34:28;101264.78;;;19.87
13304;BMP280;6720;51.958;4.540;2023-08-08T02:36:53;101267.22;;;19.92
13304;BMP280;6720;51.958;4.540;2023-08-08T02:39:19;101269.97;;;19.72
13304;BMP280;6720;51.958;4.540;2023-08-08T02:41:44;101265.09;;;19.63
13304;BMP280;6720;51.958;4.540;2023-08-08T02:44:10;101269.84;;;19.56
13304;BMP280;6720;51.958;4.540;2023-08-08T02:46:35;101258.91;;;19.62
13304;BMP280;6720;51.958;4.540;2023-08-08T02:49:03;101252.44;;;19.68
13304;BMP280;6720;51.958;4.540;2023-08-08T02:51:29;101253.75;;;19.59
13304;BMP280;6720;51.958;4.540;2023-08-08T02:53:56;101259.50;;;19.69
13304;BMP280;6720;51.958;4.540;2023-08-08T02:56:21;101255.63;;;19.57
13304;BMP280;6720;51.958;4.540;2023-08-08T02:58:47;101258.66;;;19.50
13304;BMP280;6720;51.958;4.540;2023-08-08T03:01:12;101257.31;;;19.58
13304;BMP280;6720;51.958;4.540;2023-08-08T03:03:41;101252.66;;;19.45
13304;BMP280;6720;51.958;4.540;2023-08-08T03:06:07;101251.00;;;19.42
13304;BMP280;6720;51.958;4.540;2023-08-08T03:08:32;101247.28;;;19.28
13304;BMP280;6720;51.958;4.540;2023-08-08T03:10:58;101251.00;;;19.42
13304;BMP280;6720;51.958;4.540;2023-08-08T03:13:23;101257.84;;;19.29
13304;BMP280;6720;51.958;4.540;2023-08-08T03:15:49;101254.72;;;19.20
13304;BMP280;6720;51.958;4.540;2023-08-08T03:18:14;101253.97;;;19.36
13304;BMP280;6720;51.958;4.540;2023-08-08T03:20:39;101249.56;;;19.35
13304;BMP280;6720;51.958;4.540;2023-08-08T03:23:05;101257.78;;;19.31
13304;BMP280;6720;51.958;4.540;2023-08-08T03:25:30;101259.28;;;19.16
13304;BMP280;6720;51.958;4.540;2023-08-08T03:27:56;101252.47;;;19.31
13304;BMP280;6720;51.958;4.540;2023-08-08T03:30:21;101264.06;;;19.28
13304;BMP280;6720;51.958;4.540;2023-08-08T03:32:47;101253.16;;;19.34
13304;BMP280;6720;51.958;4.540;2023-08-08T03:35:12;101258.50;;;19.14
13304;BMP280;6720;51.958;4.540;2023-08-08T03:37:38;101252.22;;;19.35
13304;BMP280;6720;51.958;4.540;2023-08-08T03:40:03;101251.59;;;19.30
13304;BMP280;6720;51.958;4.540;2023-08-08T03:42:29;101242.91;;;19.45
13304;BMP280;6720;51.958;4.540;2023-08-08T03:44:54;101245.06;;;19.37
13304;BMP280;6720;51.958;4.540;2023-08-08T03:47:20;101244.25;;;19.35
13304;BMP280;6720;51.958;4.540;2023-08-08T03:49:47;101238.66;;;19.23
13304;BMP280;6720;51.958;4.540;2023-08-08T03:52:13;101228.50;;;19.32
13304;BMP280;6720;51.958;4.540;2023-08-08T03:54:38;101229.00;;;19.20
13304;BMP280;6720;51.958;4.540;2023-08-08T03:57:04;101228.38;;;19.15
13304;BMP280;6720;51.958;4.540;2023-08-08T03:59:29;101222.38;;;19.30
13304;BMP280;6720;51.958;4.540;2023-08-08T04:01:54;101219.88;;;19.27
13304;BMP280;6720;51.958;4.540;2023-08-08T04:04:20;101218.22;;;19.25
13304;BMP280;6720;51.958;4.540;2023-08-08T04:06:45;101223.56;;;19.23
13304;BMP280;6720;51.958;4.540;2023-08-08T04:09:11;101223.56;;;19.23
13304;BMP280;6720;51.958;4.540;2023-08-08T04:11:36;101224.13;;;19.11
13304;BMP280;6720;51.958;4.540;2023-08-08T04:14:02;101231.59;;;19.22
13304;BMP280;6720;51.958;4.540;2023-08-08T04:16:28;101221.31;;;19.34
13304;BMP280;6720;51.958;4.540;2023-08-08T04:18:53;101221.44;;;19.31
13304;BMP280;6720;51.958;4.540;2023-08-08T04:21:19;101217.41;;;19.23
13304;BMP280;6720;51.958;4.540;2023-08-08T04:23:44;101214.81;;;19.21
13304;BMP280;6720;51.958;4.540;2023-08-08T04:26:10;101230.88;;;19.18
13304;BMP280;6720;51.958;4.540;2023-08-08T04:28:37;101226.59;;;19.16
13304;BMP280;6720;51.958;4.540;2023-08-08T04:31:04;101222.94;;;19.18
13304;BMP280;6720;51.958;4.540;2023-08-08T04:33:29;101227.28;;;19.19
13304;BMP280;6720;51.958;4.540;2023-08-08T04:35:54;101231.72;;;19.00
13304;BMP280;6720;51.958;4.540;2023-08-08T04:38:20;101229.25;;;18.96
13304;BMP280;6720;51.958;4.540;2023-08-08T04:40:45;101233.66;;;18.97
13304;BMP280;6720;51.958;4.540;2023-08-08T04:43:11;101235.00;;;19.05
13304;BMP280;6720;51.958;4.540;2023-08-08T04:45:36;101237.44;;;18.91
13304;BMP280;6720;51.958;4.540;2023-08-08T04:48:02;101248.09;;;19.10
13304;BMP280;6720;51.958;4.540;2023-08-08T04:50:27;101236.59;;;19.09
13304;BMP280;6720;51.958;4.540;2023-08-08T04:52:53;101236.75;;;19.06
13304;BMP280;6720;51.958;4.540;2023-08-08T04:55:18;101237.28;;;18.94
13304;BMP280;6720;51.958;4.540;2023-08-08T04:57:44;101234.31;;;19.02
13304;BMP280;6720;51.958;4.540;2023-08-08T05:00:10;101237.66;;;19.05
13304;BMP280;6720;51.958;4.540;2023-08-08T05:02:36;101237.16;;;18.97
13304;BMP280;6720;51.958;4.540;2023-08-08T05:05:01;101243.72;;;18.89
13304;BMP280;6720;51.958;4.540;2023-08-08T05:07:27;101251.16;;;18.81
13304;BMP280;6720;51.958;4.540;2023-08-08T05:09:52;101248.47;;;18.82
13304;BMP280;6720;51.958;4.540;2023-08-08T05:12:18;101249.66;;;18.95
13304;BMP280;6720;51.958;4.540;2023-08-08T05:14:43;101241.91;;;19.09
13304;BMP280;6720;51.958;4.540;2023-08-08T05:17:09;101237.16;;;18.97
13304;BMP280;6720;51.958;4.540;2023-08-08T05:19:34;101241.94;;;18.89
13304;BMP280;6720;51.958;4.540;2023-08-08T05:22:00;101236.00;;;18.84
13304;BMP280;6720;51.958;4.540;2023-08-08T05:24:25;101238.34;;;19.10
13304;BMP280;6720;51.958;4.540;2023-08-08T05:26:51;101240.00;;;19.13
13304;BMP280;6720;51.958;4.540;2023-08-08T05:29:18;101247.06;;;18.94
13304;BMP280;6720;51.958;4.540;2023-08-08T05:31:44;101249.50;;;18.98
13304;BMP280;6720;51.958;4.540;2023-08-08T05:34:09;101248.34;;;19.04
13304;BMP280;6720;51.958;4.540;2023-08-08T05:36:35;101240.88;;;18.93
13304;BMP280;6720;51.958;4.540;2023-08-08T05:39:00;101251.69;;;19.09
13304;BMP280;6720;51.958;4.540;2023-08-08T05:41:26;101251.38;;;19.15
13304;BMP280;6720;51.958;4.540;2023-08-08T05:43:51;101244.84;;;19.03
13304;BMP280;6720;51.958;4.540;2023-08-08T05:46:17;101247.66;;;19.00
13304;BMP280;6720;51.958;4.540;2023-08-08T05:48:42;101248.66;;;19.16
13304;BMP280;6720;51.958;4.540;2023-08-08T05:51:07;101252.44;;;18.92
13304;BMP280;6720;51.958;4.540;2023-08-08T05:53:33;101255.47;;;19.03
13304;BMP280;6720;51.958;4.540;2023-08-08T05:55:58;101258.56;;;19.13
13304;BMP280;6720;51.958;4.540;2023-08-08T05:58:24;101252.13;;;19.18
13304;BMP280;6720;51.958;4.540;2023-08-08T06:00:50;101251.25;;;18.99
13304;BMP280;6720;51.958;4.540;2023-08-08T06:03:15;101261.44;;;19.08
13304;BMP280;6720;51.958;4.540;2023-08-08T06:05:41;101260.28;;;18.95
13304;BMP280;6720;51.958;4.540;2023-08-08T06:08:06;101259.91;;;19.03
13304;BMP280;6720;51.958;4.540;2023-08-08T06:10:37;101258.66;;;19.11
13304;BMP280;6720;51.958;4.540;2023-08-08T06:13:03;101264.06;;;19.28
13304;BMP280;6720;51.958;4.540;2023-08-08T06:15:29;101270.19;;;19.10
13304;BMP280;6720;51.958;4.540;2023-08-08T06:17:54;101273.50;;;19.15
13304;BMP280;6720;51.958;4.540;2023-08-08T06:20:20;101275.94;;;19.20
13304;BMP280;6720;51.958;4.540;2023-08-08T06:22:48;101271.78;;;19.14
13304;BMP280;6720;51.958;4.540;2023-08-08T06:25:16;101269.78;;;19.19
13304;BMP280;6720;51.958;4.540;2023-08-08T06:27:41;101274.78;;;19.27
13304;BMP280;6720;51.958;4.540;2023-08-08T06:30:07;101273.69;;;19.49
13304;BMP280;6720;51.958;4.540;2023-08-08T06:32:34;101272.84;;;19.49
13304;BMP280;6720;51.958;4.540;2023-08-08T06:34:59;101271.41;;;19.60
13304;BMP280;6720;51.958;4.540;2023-08-08T06:37:24;101270.25;;;19.66
13304;BMP280;6720;51.958;4.540;2023-08-08T06:39:50;101265.41;;;19.57
13304;BMP280;6720;51.958;4.540;2023-08-08T06:42:16;101266.47;;;19.71
13304;BMP280;6720;51.958;4.540;2023-08-08T06:44:42;101266.53;;;19.70
13304;BMP280;6720;51.958;4.540;2023-08-08T06:47:08;101272.75;;;19.87
13304;BMP280;6720;51.958;4.540;2023-08-08T06:49:34;101266.38;;;19.73
13304;BMP280;6720;51.958;4.540;2023-08-08T06:52:00;101261.31;;;19.50
13304;BMP280;6720;51.958;4.540;2023-08-08T06:54:25;101262.94;;;19.71
13304;BMP280;6720;51.958;4.540;2023-08-08T06:56:53;101264.66;;;19.72
13304;BMP280;6720;51.958;4.540;2023-08-08T06:59:19;101262.22;;;19.67
13304;BMP280;6720;51.958;4.540;2023-08-08T07:01:44;101258.03;;;19.43
13304;BMP280;6720;51.958;4.540;2023-08-08T07:04:10;101267.31;;;19.53
13304;BMP280;6720;51.958;4.540;2023-08-08T07:06:35;101267.56;;;19.84
13304;BMP280;6720;51.958;4.540;2023-08-08T07:09:01;101265.16;;;19.80
13304;BMP280;6720;51.958;4.540;2023-08-08T07:11:27;101271.19;;;19.65
13304;BMP280;6720;51.958;4.540;2023-08-08T07:13:53;101273.28;;;19.77
13304;BMP280;6720;51.958;4.540;2023-08-08T07:16:18;101269.38;;;19.65
13304;BMP280;6720;51.958;4.540;2023-08-08T07:18:44;101285.31;;;19.65
13304;BMP280;6720;51.958;4.540;2023-08-08T07:21:09;101277.44;;;19.82
13304;BMP280;6720;51.958;4.540;2023-08-08T07:23:35;101264.97;;;19.47
13304;BMP280;6720;51.958;4.540;2023-08-08T07:26:00;101262.00;;;20.07
13304;BMP280;6720;51.958;4.540;2023-08-08T07:28:25;101258.31;;;19.93
13304;BMP280;6720;51.958;4.540;2023-08-08T07:30:52;101262.81;;;20.09
13304;BMP280;6720;51.958;4.540;2023-08-08T07:33:18;101253.88;;;19.93
13304;BMP280;6720;51.958;4.540;2023-08-08T07:35:45;101255.19;;;20.02
13304;BMP280;6720;51.958;4.540;2023-08-08T07:38:10;101255.56;;;19.94
13304;BMP280;6720;51.958;4.540;2023-08-08T07:40:36;101263.88;;;20.05
13304;BMP280;6720;51.958;4.540;2023-08-08T07:43:01;101253.25;;;20.05
13304;BMP280;6720;51.958;4.540;2023-08-08T07:45:27;101250.00;;;20.17
13304;BMP280;6720;51.958;4.540;2023-08-08T07:47:53;101250.34;;;20.28
13304;BMP280;6720;51.958;4.540;2023-08-08T07:50:20;101252.78;;;20.33
13304;BMP280;6720;51.958;4.540;2023-08-08T07:52:47;101252.63;;;20.36
13304;BMP280;6720;51.958;4.540;2023-08-08T07:55:12;101246.59;;;20.15
13304;BMP280;6720;51.958;4.540;2023-08-08T07:57:38;101247.22;;;20.37
13304;BMP280;6720;51.958;4.540;2023-08-08T08:00:05;101251.63;;;20.38
13304;BMP280;6720;51.958;4.540;2023-08-08T08:02:42;101249.03;;;20.37
13304;BMP280;6720;51.958;4.540;2023-08-08T08:05:09;101261.59;;;20.16
13304;BMP280;6720;51.958;4.540;2023-08-08T08:07:35;101258.94;;;20.16
13304;BMP280;6720;51.958;4.540;2023-08-08T08:10:05;101258.72;;;20.21
13304;BMP280;6720;51.958;4.540;2023-08-08T08:12:31;101252.31;;;20.06
13304;BMP280;6720;51.958;4.540;2023-08-08T08:14:57;101257.06;;;20.35
13304;BMP280;6720;51.958;4.540;2023-08-08T08:17:22;101272.97;;;20.37
13304;BMP280;6720;51.958;4.540;2023-08-08T08:19:49;101259.97;;;20.31
13304;BMP280;6720;51.958;4.540;2023-08-08T08:22:14;101252.72;;;20.68
13304;BMP280;6720;51.958;4.540;2023-08-08T08:24:40;101245.81;;;20.64
13304;BMP280;6720;51.958;4.540;2023-08-08T08:27:05;101249.56;;;20.43
13304;BMP280;6720;51.958;4.540;2023-08-08T08:29:30;101253.88;;;20.46
13304;BMP280;6720;51.958;4.540;2023-08-08T08:31:56;101255.19;;;20.37
13304;BMP280;6720;51.958;4.540;2023-08-08T08:34:22;101262.06;;;20.41
13304;BMP280;6720;51.958;4.540;2023-08-08T08:36:47;101258.34;;;20.45
13304;BMP280;6720;51.958;4.540;2023-08-08T08:39:13;101251.69;;;20.37
13304;BMP280;6720;51.958;4.540;2023-08-08T08:41:38;101249.63;;;20.76
13304;BMP280;6720;51.958;4.540;2023-08-08T08:44:04;101245.31;;;20.56
13304;BMP280;6720;51.958;4.540;2023-08-08T08:46:32;101256.28;;;20.84
13304;BMP280;6720;51.958;4.540;2023-08-08T08:48:59;101261.44;;;20.87
13304;BMP280;6720;51.958;4.540;2023-08-08T08:51:25;101267.41;;;20.58
13304;BMP280;6720;51.958;4.540;2023-08-08T08:53:51;101259.03;;;20.66
13304;BMP280;6720;51.958;4.540;2023-08-08T08:56:17;101264.44;;;20.64
13304;BMP280;6720;51.958;4.540;2023-08-08T08:58:43;101264.25;;;20.67
13304;BMP280;6720;51.958;4.540;2023-08-08T09:01:12;101262.22;;;21.06
13304;BMP280;6720;51.958;4.540;2023-08-08T09:03:38;101267.41;;;20.75
13304;BMP280;6720;51.958;4.540;2023-08-08T09:06:05;101268.47;;;20.88
13304;BMP280;6720;51.958;4.540;2023-08-08T09:08:31;101275.41;;;20.92
13304;BMP280;6720;51.958;4.540;2023-08-08T09:10:58;101270.28;;;20.88
13304;BMP280;6720;51.958;4.540;2023-08-08T09:13:23;101280.84;;;20.89
13304;BMP280;6720;51.958;4.540;2023-08-08T09:15:52;101280.94;;;21.05
13304;BMP280;6720;51.958;4.540;2023-08-08T09:18:17;101282.13;;;20.99
13304;BMP280;6720;51.958;4.540;2023-08-08T09:20:49;101279.91;;;21.07
13304;BMP280;6720;51.958;4.540;2023-08-08T09:23:14;101278.75;;;20.96
13304;BMP280;6720;51.958;4.540;2023-08-08T09:25:40;101276.00;;;20.80
13304;BMP280;6720;51.958;4.540;2023-08-08T09:28:05;101284.09;;;21.28
13304;BMP280;6720;51.958;4.540;2023-08-08T09:30:33;101276.56;;;21.52
13304;BMP280;6720;51.958;4.540;2023-08-08T09:33:00;101284.50;;;21.21
13304;BMP280;6720;51.958;4.540;2023-08-08T09:35:28;101283.75;;;21.34
13304;BMP280;6720;51.958;4.540;2023-08-08T09:37:58;101284.06;;;21.61
13304;BMP280;6720;51.958;4.540;2023-08-08T09:40:25;101278.88;;;21.42
13304;BMP280;6720;51.958;4.540;2023-08-08T09:42:52;101282.06;;;21.65
13304;BMP280;6720;51.958;4.540;2023-08-08T09:45:18;101274.91;;;21.98
13304;BMP280;6720;51.958;4.540;2023-08-08T09:47:43;101285.19;;;22.19
13304;BMP280;6720;51.958;4.540;2023-08-08T09:50:09;101274.19;;;22.10
13304;BMP280;6720;51.958;4.540;2023-08-08T09:52:36;101283.44;;;22.49
13304;BMP280;6720;51.958;4.540;2023-08-08T09:55:05;101282.03;;;22.58
13304;BMP280;6720;51.958;4.540;2023-08-08T09:57:32;101274.38;;;21.76
13304;BMP280;6720;51.958;4.540;2023-08-08T09:59:58;101275.06;;;22.10
13304;BMP280;6720;51.958;4.540;2023-08-08T10:02:23;101283.16;;;22.09
13304;BMP280;6720;51.958;4.540;2023-08-08T10:04:50;101295.38;;;22.42
13304;BMP280;6720;51.958;4.540;2023-08-08T10:07:15;101288.78;;;22.49
13304;BMP280;6720;51.958;4.540;2023-08-08T10:09:41;101274.19;;;22.55
13304;BMP280;6720;51.958;4.540;2023-08-08T10:12:08;101282.66;;;22.77
13304;BMP280;6720;51.958;4.540;2023-08-08T10:14:37;101280.25;;;22.43
13304;BMP280;6720;51.958;4.540;2023-08-08T10:17:05;101278.88;;;22.36
13304;BMP280;6720;51.958;4.540;2023-08-08T10:19:31;101273.25;;;22.56
13304;BMP280;6720;51.958;4.540;2023-08-08T10:22:02;101281.38;;;22.23
13304;BMP280;6720;51.958;4.540;2023-08-08T10:24:33;101279.09;;;22.62
13304;BMP280;6720;51.958;4.540;2023-08-08T10:27:01;101282.22;;;22.55
13304;BMP280;6720;51.958;4.540;2023-08-08T10:29:28;101297.25;;;22.56
13304;BMP280;6720;51.958;4.540;2023-08-08T10:32:03;101296.19;;;22.74
13304;BMP280;6720;51.958;4.540;2023-08-08T10:34:40;101294.25;;;23.05
13304;BMP280;6720;51.958;4.540;2023-08-08T10:37:10;101263.25;;;23.31
13304;BMP280;6720;51.958;4.540;2023-08-08T10:39:37;101292.09;;;23.26
13304;BMP280;6720;51.958;4.540;2023-08-08T10:42:04;101273.16;;;23.15
13304;BMP280;6720;51.958;4.540;2023-08-08T10:44:30;101278.69;;;23.12
13304;BMP280;6720;51.958;4.540;2023-08-08T10:46:56;101287.66;;;23.11
13304;BMP280;6720;51.958;4.540;2023-08-08T10:49:22;101274.00;;;22.87
13304;BMP280;6720;51.958;4.540;2023-08-08T10:51:49;101284.63;;;23.31
13304;BMP280;6720;51.958;4.540;2023-08-08T10:54:24;101299.84;;;22.57
13304;BMP280;6720;51.958;4.540;2023-08-08T10:56:55;101291.56;;;22.46
13304;BMP280;6720;51.958;4.540;2023-08-08T10:59:23;101281.00;;;22.45
13304;BMP280;6720;51.958;4.540;2023-08-08T11:01:50;101286.25;;;22.46
13304;BMP280;6720;51.958;4.540;2023-08-08T11:04:21;101312.03;;;22.16
13304;BMP280;6720;51.958;4.540;2023-08-08T11:06:49;101290.69;;;22.32
13304;BMP280;6720;51.958;4.540;2023-08-08T11:09:15;101285.56;;;23.02
13304;BMP280;6720;51.958;4.540;2023-08-08T11:11:43;101287.31;;;23.17
13304;BMP280;6720;51.958;4.540;2023-08-08T11:14:18;101273.50;;;23.38
13304;BMP280;6720;51.958;4.540;2023-08-08T11:16:45;101284.22;;;22.95
13304;BMP280;6720;51.958;4.540;2023-08-08T11:19:12;101273.66;;;22.19
13304;BMP280;6720;51.958;4.540;2023-08-08T11:21:40;101282.56;;;22.49
13304;BMP280;6720;51.958;4.540;2023-08-08T11:24:06;101287.38;;;22.58
13304;BMP280;6720;51.958;4.540;2023-08-08T11:26:33;101277.28;;;22.18
13304;BMP280;6720;51.958;4.540;2023-08-08T11:29:00;101288.09;;;22.15
13304;BMP280;6720;51.958;4.540;2023-08-08T11:31:25;101286.97;;;22.50
13304;BMP280;6720;51.958;4.540;2023-08-08T11:33:52;101275.59;;;22.76
13304;BMP280;6720;51.958;4.540;2023-08-08T11:36:19;101278.72;;;22.68
13304;BMP280;6720;51.958;4.540;2023-08-08T11:38:45;101275.75;;;22.59
13304;BMP280;6720;51.958;4.540;2023-08-08T11:41:13;101276.31;;;22.64
13304;BMP280;6720;51.958;4.540;2023-08-08T11:43:39;101277.97;;;22.80
13304;BMP280;6720;51.958;4.540;2023-08-08T11:46:10;101287.13;;;22.76
13304;BMP280;6720;51.958;4.540;2023-08-08T11:48:37;101297.09;;;22.59
13304;BMP280;6720;51.958;4.540;2023-08-08T11:51:07;101287.22;;;22.75
13304;BMP280;6720;51.958;4.540;2023-08-08T11:53:33;101295.38;;;22.58
13304;BMP280;6720;51.958;4.540;2023-08-08T11:56:02;101285.88;;;22.68
13304;BMP280;6720;51.958;4.540;2023-08-08T11:58:29;101285.53;;;22.88
13304;BMP280;6720;51.958;4.540;2023-08-08T12:00:58;101281.66;;;22.64
13304;BMP280;6720;51.958;4.540;2023-08-08T12:03:25;101282.31;;;22.53
13304;BMP280;6720;51.958;4.540;2023-08-08T12:05:51;101284.72;;;22.58
13304;BMP280;6720;51.958;4.540;2023-08-08T12:08:20;101272.75;;;22.49
13304;BMP280;6720;51.958;4.540;2023-08-08T12:10:49;101277.06;;;22.52
13304;BMP280;6720;51.958;4.540;2023-08-08T12:13:20;101283.94;;;23.13
13304;BMP280;6720;51.958;4.540;2023-08-08T12:15:46;101277.16;;;23.08
13304;BMP280;6720;51.958;4.540;2023-08-08T12:18:11;101281.19;;;23.57
13304;BMP280;6720;51.958;4.540;2023-08-08T12:20:37;101277.19;;;23.64
13304;BMP280;6720;51.958;4.540;2023-08-08T12:23:02;101270.63;;;23.41
13304;BMP280;6720;51.958;4.540;2023-08-08T12:25:27;101275.47;;;23.63
13304;BMP280;6720;51.958;4.540;2023-08-08T12:27:53;101271.00;;;24.04
13304;BMP280;6720;51.958;4.540;2023-08-08T12:30:18;101273.13;;;23.30
13304;BMP280;6720;51.958;4.540;2023-08-08T12:32:44;101260.31;;;24.16
13304;BMP280;6720;51.958;4.540;2023-08-08T12:35:09;101265.13;;;24.11
13304;BMP280;6720;51.958;4.540;2023-08-08T12:37:35;101272.06;;;24.67
13304;BMP280;6720;51.958;4.540;2023-08-08T12:40:00;101269.72;;;24.75
13304;BMP280;6720;51.958;4.540;2023-08-08T12:42:28;101276.03;;;24.35
13304;BMP280;6720;51.958;4.540;2023-08-08T12:44:53;101260.56;;;24.26
13304;BMP280;6720;51.958;4.540;2023-08-08T12:47:19;101283.00;;;24.77
13304;BMP280;6720;51.958;4.540;2023-08-08T12:49:45;101272.06;;;25.55
13304;BMP280;6720;51.958;4.540;2023-08-08T12:52:11;101275.53;;;25.19
13304;BMP280;6720;51.958;4.540;2023-08-08T12:54:36;101283.13;;;25.00
13304;BMP280;6720;51.958;4.540;2023-08-08T12:57:02;101282.22;;;24.23
13304;BMP280;6720;51.958;4.540;2023-08-08T12:59:28;101288.25;;;24.39
13304;BMP280;6720;51.958;4.540;2023-08-08T13:01:53;101275.72;;;24.66
13304;BMP280;6720;51.958;4.540;2023-08-08T13:04:19;101274.38;;;24.20
13304;BMP280;6720;51.958;4.540;2023-08-08T13:06:44;101292.25;;;23.93
13304;BMP280;6720;51.958;4.540;2023-08-08T13:09:10;101286.09;;;23.91
13304;BMP280;6720;51.958;4.540;2023-08-08T13:11:35;101303.25;;;23.46
13304;BMP280;6720;51.958;4.540;2023-08-08T13:14:01;101299.53;;;23.49
13304;BMP280;6720;51.958;4.540;2023-08-08T13:16:26;101284.47;;;23.34
13304;BMP280;6720;51.958;4.540;2023-08-08T13:18:52;101296.09;;;23.33
13304;BMP280;6720;51.958;4.540;2023-08-08T13:21:17;101289.00;;;23.18
13304;BMP280;6720;51.958;4.540;2023-08-08T13:23:44;101291.69;;;23.46
13304;BMP280;6720;51.958;4.540;2023-08-08T13:26:11;101302.97;;;23.23
13304;BMP280;6720;51.958;4.540;2023-08-08T13:28:37;101303.25;;;23.60
13304;BMP280;6720;51.958;4.540;2023-08-08T13:31:04;101299.00;;;23.14
13304;BMP280;6720;51.958;4.540;2023-08-08T13:33:31;101292.38;;;23.35
13304;BMP280;6720;51.958;4.540;2023-08-08T13:35:57;101307.53;;;23.35
13304;BMP280;6720;51.958;4.540;2023-08-08T13:38:22;101288.88;;;23.21
13304;BMP280;6720;51.958;4.540;2023-08-08T13:40:48;101293.03;;;23.67
13304;BMP280;6720;51.958;4.540;2023-08-08T13:43:14;101297.34;;;23.41
13304;BMP280;6720;51.958;4.540;2023-08-08T13:45:39;101296.97;;;23.88
13304;BMP280;6720;51.958;4.540;2023-08-08T13:48:05;101290.25;;;23.68
13304;BMP280;6720;51.958;4.540;2023-08-08T13:50:30;101285.00;;;24.21
13304;BMP280;6720;51.958;4.540;2023-08-08T13:52:56;101286.44;;;24.52
13304;BMP280;6720;51.958;4.540;2023-08-08T13:55:21;101286.06;;;24.19
13304;BMP280;6720;51.958;4.540;2023-08-08T13:57:47;101292.00;;;24.10
13304;BMP280;6720;51.958;4.540;2023-08-08T14:00:12;101289.16;;;23.99
13304;BMP280;6720;51.958;4.540;2023-08-08T14:02:39;101298.00;;;24.13
13304;BMP280;6720;51.958;4.540;2023-08-08T14:05:05;101286.13;;;23.07
13304;BMP280;6720;51.958;4.540;2023-08-08T14:07:33;101284.22;;;23.09